createdAt,value
2023-03-19T00:01:23.096Z,82.80
2023-03-19T00:03:51.808Z,77.60
2023-03-19T00:06:20.012Z,77.20
2023-03-19T00:09:29.462Z,74.10
2023-03-19T00:11:57.744Z,70.10
2023-03-19T00:14:26.215Z,82.00
2023-03-19T00:16:56.380Z,79.00
2023-03-19T00:19:25.555Z,76.60
2023-03-19T00:21:54.643Z,76.90
2023-03-19T00:24:23.546Z,79.10
2023-03-19T00:26:52.324Z,78.00
2023-03-19T00:29:23.450Z,72.50
2023-03-19T00:31:51.853Z,68.20
2023-03-19T00:34:20.132Z,72.90
2023-03-19T00:36:50.684Z,73.70
2023-03-19T00:39:24.567Z,69.70
2023-03-19T00:41:52.755Z,62.30
2023-03-19T00:44:20.972Z,61.60
2023-03-19T00:46:49.093Z,64.60
2023-03-19T00:49:17.574Z,62.40
2023-03-19T00:51:47.295Z,61.40
2023-03-19T00:54:15.669Z,64.10
2023-03-19T00:56:44.252Z,60.40
2023-03-19T00:59:12.544Z,60.10
2023-03-19T01:01:42.128Z,59.50
2023-03-19T01:04:11.526Z,59.40
2023-03-19T01:06:39.945Z,59.20
2023-03-19T01:09:08.235Z,57.10
2023-03-19T01:11:37.305Z,62.80
2023-03-19T01:14:11.843Z,58.60
2023-03-19T01:16:40.949Z,60.00
2023-03-19T01:19:09.191Z,58.20
2023-03-19T01:21:38.078Z,49.40
2023-03-19T01:24:06.375Z,57.00
2023-03-19T01:26:36.378Z,56.40
2023-03-19T01:29:17.056Z,56.20
2023-03-19T01:31:45.424Z,53.10
2023-03-19T01:34:34.385Z,57.50
2023-03-19T01:37:13.912Z,49.30
2023-03-19T01:39:43.045Z,52.50
2023-03-19T01:42:13.859Z,50.60
2023-03-19T01:45:03.547Z,46.70
2023-03-19T01:48:20.206Z,43.80
2023-03-19T01:51:01.650Z,41.30
2023-03-19T01:53:56.054Z,50.40
2023-03-19T01:56:35.557Z,46.90
2023-03-19T01:59:17.581Z,46.50
2023-03-19T02:02:27.627Z,44.40
2023-03-19T02:05:03.609Z,44.50
2023-03-19T02:07:35.888Z,55.20
2023-03-19T02:10:07.329Z,38.80
2023-03-19T02:12:36.608Z,41.30
2023-03-19T02:15:13.259Z,40.80
2023-03-19T02:17:42.297Z,48.30
2023-03-19T02:20:27.964Z,46.30
2023-03-19T02:23:21.578Z,42.80
2023-03-19T02:26:04.490Z,41.50
2023-03-19T02:28:37.605Z,44.80
2023-03-19T02:31:07.145Z,42.40
2023-03-19T02:33:35.672Z,39.30
2023-03-19T02:36:06.808Z,41.20
2023-03-19T02:38:36.734Z,46.10
2023-03-19T02:41:08.589Z,46.80
2023-03-19T02:43:38.165Z,58.50
2023-03-19T02:46:08.771Z,59.20
2023-03-19T02:48:39.259Z,58.70
2023-03-19T02:51:08.837Z,57.60
2023-03-19T02:53:43.041Z,54.80
2023-03-19T02:56:13.021Z,46.70
2023-03-19T02:58:42.169Z,38.80
2023-03-19T03:01:10.687Z,36.20
2023-03-19T03:03:39.487Z,34.60
2023-03-19T03:06:07.723Z,43.20
2023-03-19T03:08:39.054Z,35.80
2023-03-19T03:11:07.996Z,33.70
2023-03-19T03:13:40.144Z,36.90
2023-03-19T03:16:08.838Z,34.50
2023-03-19T03:18:37.927Z,35.50
2023-03-19T03:21:06.712Z,30.70
2023-03-19T03:23:36.912Z,30.70
2023-03-19T03:26:06.971Z,31.90
2023-03-19T03:28:37.057Z,32.00
2023-03-19T03:31:05.902Z,34.70
2023-03-19T03:33:34.249Z,33.10
2023-03-19T03:36:04.113Z,34.80
2023-03-19T03:38:33.076Z,36.30
2023-03-19T03:41:01.661Z,36.20
2023-03-19T03:43:30.166Z,38.60
2023-03-19T03:45:59.906Z,35.80
2023-03-19T03:48:28.791Z,35.80
2023-03-19T03:50:57.310Z,36.80
2023-03-19T03:53:28.454Z,42.40
2023-03-19T03:55:56.735Z,40.00
2023-03-19T03:58:26.242Z,40.00
2023-03-19T04:00:55.803Z,44.80
2023-03-19T04:03:24.824Z,40.40
2023-03-19T04:05:53.441Z,41.60
2023-03-19T04:08:23.722Z,39.30
2023-03-19T04:10:52.034Z,39.70
2023-03-19T04:13:20.495Z,39.60
2023-03-19T04:15:50.656Z,38.70
2023-03-19T04:18:19.631Z,41.70
2023-03-19T04:20:48.011Z,40.10
2023-03-19T04:23:17.113Z,43.80
2023-03-19T04:25:46.921Z,41.40
2023-03-19T04:28:20.522Z,40.70
2023-03-19T04:30:48.890Z,41.80
2023-03-19T04:33:18.650Z,44.00
2023-03-19T04:35:47.700Z,41.20
2023-03-19T04:38:16.830Z,40.30
2023-03-19T04:40:46.831Z,40.50
2023-03-19T04:43:15.880Z,40.40
2023-03-19T04:45:44.665Z,38.00
2023-03-19T04:48:17.256Z,40.40
2023-03-19T04:50:47.416Z,39.80
2023-03-19T04:53:20.171Z,37.90
2023-03-19T04:55:48.545Z,39.10
2023-03-19T04:58:19.142Z,39.50
2023-03-19T05:00:52.913Z,36.00
2023-03-19T05:03:24.876Z,39.60
2023-03-19T05:05:55.336Z,36.80
2023-03-19T05:08:24.196Z,44.60
2023-03-19T05:10:52.778Z,38.30
2023-03-19T05:13:42.549Z,42.90
2023-03-19T05:16:28.042Z,41.40
2023-03-19T05:18:56.932Z,48.30
2023-03-19T05:21:26.967Z,60.80
2023-03-19T05:23:57.483Z,55.70
2023-03-19T05:26:26.530Z,47.20
2023-03-19T05:29:14.910Z,47.00
2023-03-19T05:32:10.489Z,46.30
2023-03-19T05:34:40.982Z,43.40
2023-03-19T05:37:09.794Z,45.30
2023-03-19T05:39:38.865Z,46.60
2023-03-19T05:42:09.608Z,47.90
2023-03-19T05:44:38.195Z,42.80
2023-03-19T05:47:27.316Z,43.40
2023-03-19T05:49:57.887Z,40.80
2023-03-19T05:52:26.464Z,40.60
2023-03-19T05:54:57.711Z,46.30
2023-03-19T05:57:40.740Z,43.50
2023-03-19T06:00:19.550Z,40.30
2023-03-19T06:02:49.919Z,35.70
2023-03-19T06:05:42.672Z,46.40
2023-03-19T06:08:19.266Z,39.50
2023-03-19T06:11:00.395Z,38.10
2023-03-19T06:13:31.126Z,40.40
2023-03-19T06:16:08.339Z,40.10
2023-03-19T06:18:43.485Z,40.50
2023-03-19T06:21:13.466Z,39.30
2023-03-19T06:23:41.850Z,44.30
2023-03-19T06:26:17.710Z,42.30
2023-03-19T06:28:53.295Z,40.70
2023-03-19T06:31:22.187Z,43.00
2023-03-19T06:34:04.985Z,43.00
2023-03-19T06:36:40.273Z,44.00
2023-03-19T06:39:16.745Z,49.60
2023-03-19T06:41:47.232Z,46.00
2023-03-19T06:44:18.969Z,44.70
2023-03-19T06:46:48.452Z,43.90
2023-03-19T06:49:17.206Z,39.20
2023-03-19T06:51:45.747Z,40.60
2023-03-19T06:54:14.025Z,38.10
2023-03-19T06:56:42.845Z,36.60
2023-03-19T06:59:16.217Z,32.00
2023-03-19T07:01:45.033Z,34.30
2023-03-19T07:04:13.221Z,34.70
2023-03-19T07:06:41.555Z,21.10
2023-03-19T07:09:10.888Z,19.50
2023-03-19T07:11:39.236Z,22.20
2023-03-19T07:14:07.575Z,21.70
2023-03-19T07:16:36.528Z,21.20
2023-03-19T07:19:06.200Z,17.70
2023-03-19T07:21:34.910Z,13.80
2023-03-19T07:24:03.297Z,11.90
2023-03-19T07:26:36.034Z,11.30
2023-03-19T07:29:04.995Z,12.70
2023-03-19T07:31:33.366Z,10.80
2023-03-19T07:34:06.702Z,8.90
2023-03-19T07:36:37.277Z,9.50
2023-03-19T07:39:05.560Z,12.20
2023-03-19T07:41:34.306Z,10.20
2023-03-19T07:44:04.051Z,16.50
2023-03-19T07:46:34.270Z,12.70
2023-03-19T07:49:02.461Z,14.00
2023-03-19T07:51:31.035Z,11.70
2023-03-19T07:54:07.096Z,11.60
2023-03-19T07:56:37.539Z,11.30
2023-03-19T07:59:07.043Z,10.80
2023-03-19T08:01:36.711Z,9.70
2023-03-19T08:04:06.019Z,9.70
2023-03-19T08:09:08.532Z,7.50
2023-03-19T08:11:37.229Z,7.00
2023-03-19T08:14:05.287Z,8.70
2023-03-19T08:16:33.747Z,8.30
2023-03-19T08:19:02.580Z,7.30
2023-03-19T08:21:33.815Z,7.90
2023-03-19T08:24:04.781Z,8.50
2023-03-19T08:26:33.540Z,8.90
2023-03-19T08:29:04.432Z,8.40
2023-03-19T08:31:34.077Z,8.00
2023-03-19T08:34:05.138Z,6.10
2023-03-19T08:36:34.645Z,6.30
2023-03-19T08:39:04.274Z,7.50
2023-03-19T08:41:33.741Z,7.40
2023-03-19T08:44:02.150Z,7.10
2023-03-19T08:46:31.425Z,8.00
2023-03-19T08:49:05.968Z,7.80
2023-03-19T08:51:34.499Z,9.00
2023-03-19T08:54:03.470Z,7.30
2023-03-19T08:56:32.226Z,7.10
2023-03-19T08:59:01.943Z,8.70
2023-03-19T09:01:30.917Z,9.70
2023-03-19T09:03:59.107Z,8.00
2023-03-19T09:06:27.418Z,7.50
2023-03-19T09:08:58.837Z,9.70
2023-03-19T09:11:27.742Z,6.90
2023-03-19T09:13:56.928Z,7.10
2023-03-19T09:16:26.431Z,7.30
2023-03-19T09:19:02.549Z,8.60
2023-03-19T09:21:31.939Z,12.00
2023-03-19T09:24:00.586Z,16.10
2023-03-19T09:26:29.200Z,8.10
2023-03-19T09:28:57.968Z,9.10
2023-03-19T09:31:29.792Z,7.70
2023-03-19T09:33:58.518Z,7.70
2023-03-19T09:36:27.103Z,8.30
2023-03-19T09:38:56.545Z,8.60
2023-03-19T09:41:49.465Z,8.80
2023-03-19T09:44:47.331Z,7.90
2023-03-19T09:47:32.518Z,10.00
2023-03-19T09:50:20.457Z,9.00
2023-03-19T09:52:52.103Z,7.30
2023-03-19T09:55:42.977Z,9.90
2023-03-19T09:58:17.798Z,9.80
2023-03-19T10:00:52.908Z,7.00
2023-03-19T10:03:49.626Z,8.00
2023-03-19T10:06:29.684Z,6.50
2023-03-19T10:09:26.527Z,8.80
2023-03-19T10:12:22.932Z,8.10
2023-03-19T10:15:00.873Z,6.80
2023-03-19T10:17:32.724Z,8.90
2023-03-19T10:20:13.103Z,12.40
2023-03-19T10:23:04.407Z,10.30
2023-03-19T10:25:34.032Z,8.00
2023-03-19T10:28:12.265Z,9.50
2023-03-19T10:30:41.969Z,8.70
2023-03-19T10:33:22.845Z,7.10
2023-03-19T10:36:14.032Z,9.40
2023-03-19T10:38:43.662Z,6.80
2023-03-19T10:41:23.919Z,7.50
2023-03-19T10:43:59.010Z,7.40
2023-03-19T10:46:38.898Z,11.30
2023-03-19T10:49:14.658Z,8.80
2023-03-19T10:51:47.836Z,8.70
2023-03-19T10:54:24.545Z,7.20
2023-03-19T10:56:56.065Z,8.10
2023-03-19T10:59:32.231Z,8.00
2023-03-19T11:02:21.706Z,7.20
2023-03-19T11:05:09.487Z,14.50
2023-03-19T11:07:38.024Z,8.50
2023-03-19T11:10:14.110Z,8.30
2023-03-19T11:12:47.963Z,7.40
2023-03-19T11:15:23.885Z,7.40
2023-03-19T11:18:00.928Z,9.70
2023-03-19T11:20:34.161Z,7.60
2023-03-19T11:23:14.483Z,7.50
2023-03-19T11:25:53.081Z,7.80
2023-03-19T11:28:26.311Z,10.60
2023-03-19T11:31:20.543Z,7.70
2023-03-19T11:34:08.619Z,7.20
2023-03-19T11:36:48.781Z,9.10
2023-03-19T11:39:54.746Z,7.30
2023-03-19T11:43:06.132Z,9.60
2023-03-19T11:46:00.019Z,9.40
2023-03-19T11:49:13.357Z,10.20
2023-03-19T11:51:51.788Z,7.40
2023-03-19T11:54:28.440Z,8.20
2023-03-19T11:57:01.163Z,10.60
2023-03-19T11:59:36.687Z,8.70
2023-03-19T12:02:26.970Z,9.50
2023-03-19T12:05:01.713Z,8.50
2023-03-19T12:08:06.629Z,31.20
2023-03-19T12:10:54.156Z,12.40
2023-03-19T12:13:44.654Z,8.20
2023-03-19T12:16:45.722Z,7.40
2023-03-19T12:19:41.529Z,7.60
2023-03-19T12:28:19.605Z,8.00
2023-03-19T12:31:27.989Z,9.20
2023-03-19T12:34:15.126Z,7.70
2023-03-19T12:37:07.458Z,7.40
2023-03-19T12:39:38.211Z,9.60
2023-03-19T12:42:06.525Z,8.30
2023-03-19T12:51:21.808Z,8.20
2023-03-19T12:53:53.040Z,10.90
2023-03-19T12:56:29.734Z,7.90
2023-03-19T12:59:01.535Z,8.80
2023-03-19T13:01:34.280Z,7.30
2023-03-19T13:04:07.387Z,7.10
2023-03-19T13:06:52.799Z,6.90
2023-03-19T13:09:27.866Z,7.90
2023-03-19T13:12:02.173Z,7.70
2023-03-19T13:15:04.665Z,7.80
2023-03-19T13:18:12.272Z,8.90
2023-03-19T13:21:18.886Z,7.00
2023-03-19T13:23:48.401Z,10.70
2023-03-19T13:26:17.031Z,8.60
2023-03-19T13:28:59.854Z,7.60
2023-03-19T13:31:29.159Z,6.70
2023-03-19T13:34:18.340Z,8.20
2023-03-19T13:36:48.951Z,7.00
2023-03-19T13:39:28.239Z,7.70
2023-03-19T13:42:22.886Z,9.00
2023-03-19T13:45:03.751Z,7.20
2023-03-19T13:47:33.090Z,8.10
2023-03-19T13:50:16.371Z,7.80
2023-03-19T13:52:48.457Z,10.50
2023-03-19T13:55:31.236Z,12.00
2023-03-19T13:58:12.867Z,9.00
2023-03-19T14:00:45.347Z,9.50
2023-03-19T14:03:24.258Z,10.50
2023-03-19T14:05:53.922Z,8.20
2023-03-19T14:08:33.860Z,10.00
2023-03-19T14:11:03.338Z,8.70
2023-03-19T14:13:32.742Z,8.00
2023-03-19T14:16:06.950Z,11.80
2023-03-19T14:18:41.203Z,10.80
2023-03-19T14:21:21.392Z,9.10
2023-03-19T14:23:55.026Z,8.30
2023-03-19T14:26:24.884Z,7.60
2023-03-19T14:29:05.013Z,6.90
2023-03-19T14:31:43.417Z,9.40
2023-03-19T14:34:11.942Z,7.20
2023-03-19T14:36:46.407Z,9.10
2023-03-19T14:39:25.218Z,9.20
2023-03-19T14:42:07.468Z,6.70
2023-03-19T14:44:54.995Z,7.80
2023-03-19T14:47:24.906Z,6.90
2023-03-19T14:50:44.486Z,13.20
2023-03-19T14:53:38.209Z,7.40
2023-03-19T14:56:19.442Z,10.50
2023-03-19T14:58:54.556Z,9.80
2023-03-19T15:01:27.324Z,9.10
2023-03-19T15:04:00.576Z,10.50
2023-03-19T15:06:33.148Z,8.00
2023-03-19T15:09:02.780Z,8.10
2023-03-19T15:11:48.226Z,8.80
2023-03-19T15:14:50.717Z,8.30
2023-03-19T15:17:24.579Z,13.70
2023-03-19T15:19:52.903Z,13.40
2023-03-19T15:22:23.753Z,8.80
2023-03-19T15:24:53.037Z,9.50
2023-03-19T15:27:23.123Z,7.80
2023-03-19T15:29:52.005Z,12.50
2023-03-19T15:35:33.996Z,10.60
2023-03-19T15:38:06.754Z,10.80
2023-03-19T15:40:35.270Z,7.90
2023-03-19T15:51:03.469Z,9.40
2023-03-19T15:53:31.350Z,9.40
2023-03-19T15:55:59.970Z,11.50
2023-03-19T15:58:28.612Z,12.00
2023-03-19T16:00:55.659Z,9.10
2023-03-19T16:03:28.554Z,11.20
2023-03-19T16:06:01.342Z,14.30
2023-03-19T16:08:32.885Z,11.70
2023-03-19T16:11:27.374Z,13.80
2023-03-19T16:13:59.273Z,12.50
2023-03-19T16:16:31.688Z,13.40
2023-03-19T16:19:00.817Z,17.70
2023-03-19T16:21:37.898Z,14.50
2023-03-19T16:24:08.231Z,17.70
2023-03-19T16:26:39.984Z,19.40
2023-03-19T16:29:23.793Z,23.00
